sensor_id;sensor_type;location;lat;lon;timestamp;temperature;humidity
74968;SHT30;63523;51.880;12.630;2023-05-10T00:00:08;13.08;54.93
74968;SHT30;63523;51.880;12.630;2023-05-10T00:02:34;13.11;55.08
74968;SHT30;63523;51.880;12.630;2023-05-10T00:05:00;13.10;54.95
74968;SHT30;63523;51.880;12.630;2023-05-10T00:07:25;12.98;55.42
74968;SHT30;63523;51.880;12.630;2023-05-10T00:09:50;12.97;55.42
74968;SHT30;63523;51.880;12.630;2023-05-10T00:12:16;12.95;55.40
74968;SHT30;63523;51.880;12.630;2023-05-10T00:14:41;12.86;55.49
74968;SHT30;63523;51.880;12.630;2023-05-10T00:17:07;12.80;56.07
74968;SHT30;63523;51.880;12.630;2023-05-10T00:19:32;12.83;55.84
74968;SHT30;63523;51.880;12.630;2023-05-10T00:21:57;12.75;56.33
74968;SHT30;63523;51.880;12.630;2023-05-10T00:24:22;12.77;55.86
74968;SHT30;63523;51.880;12.630;2023-05-10T00:26:48;12.75;55.60
74968;SHT30;63523;51.880;12.630;2023-05-10T00:29:13;12.69;56.11
74968;SHT30;63523;51.880;12.630;2023-05-10T00:31:38;12.61;56.51
74968;SHT30;63523;51.880;12.630;2023-05-10T00:34:03;12.59;56.42
74968;SHT30;63523;51.880;12.630;2023-05-10T00:36:29;12.55;56.99
74968;SHT30;63523;51.880;12.630;2023-05-10T00:38:56;12.49;56.77
74968;SHT30;63523;51.880;12.630;2023-05-10T00:41:21;12.46;57.08
74968;SHT30;63523;51.880;12.630;2023-05-10T00:43:46;12.39;57.08
74968;SHT30;63523;51.880;12.630;2023-05-10T00:46:13;12.39;57.21
74968;SHT30;63523;51.880;12.630;2023-05-10T00:48:39;12.45;57.04
74968;SHT30;63523;51.880;12.630;2023-05-10T00:51:04;12.48;56.76
74968;SHT30;63523;51.880;12.630;2023-05-10T00:53:31;12.32;57.49
74968;SHT30;63523;51.880;12.630;2023-05-10T00:55:56;12.28;57.67
74968;SHT30;63523;51.880;12.630;2023-05-10T00:58:21;12.26;57.92
74968;SHT30;63523;51.880;12.630;2023-05-10T01:00:49;12.25;57.46
74968;SHT30;63523;51.880;12.630;2023-05-10T01:03:15;12.20;58.29
74968;SHT30;63523;51.880;12.630;2023-05-10T01:05:40;12.12;58.29
74968;SHT30;63523;51.880;12.630;2023-05-10T01:08:05;12.12;58.50
74968;SHT30;63523;51.880;12.630;2023-05-10T01:10:31;12.05;58.55
74968;SHT30;63523;51.880;12.630;2023-05-10T01:12:56;12.04;58.55
74968;SHT30;63523;51.880;12.630;2023-05-10T01:15:24;12.02;58.68
74968;SHT30;63523;51.880;12.630;2023-05-10T01:17:49;12.02;58.80
74968;SHT30;63523;51.880;12.630;2023-05-10T01:20:15;12.05;58.33
74968;SHT30;63523;51.880;12.630;2023-05-10T01:23:05;12.04;58.62
74968;SHT30;63523;51.880;12.630;2023-05-10T01:29:56;11.98;58.68
74968;SHT30;63523;51.880;12.630;2023-05-10T01:34:58;11.91;58.93
74968;SHT30;63523;51.880;12.630;2023-05-10T01:37:39;11.95;59.01
74968;SHT30;63523;51.880;12.630;2023-05-10T01:43:17;11.91;58.95
74968;SHT30;63523;51.880;12.630;2023-05-10T01:45:57;11.88;59.00
74968;SHT30;63523;51.880;12.630;2023-05-10T01:48:26;11.88;59.32
74968;SHT30;63523;51.880;12.630;2023-05-10T01:50:53;11.86;59.12
74968;SHT30;63523;51.880;12.630;2023-05-10T01:53:19;11.86;59.11
74968;SHT30;63523;51.880;12.630;2023-05-10T01:55:48;11.77;59.24
74968;SHT30;63523;51.880;12.630;2023-05-10T01:58:20;11.83;59.24
74968;SHT30;63523;51.880;12.630;2023-05-10T02:00:47;11.80;59.40
74968;SHT30;63523;51.880;12.630;2023-05-10T02:03:14;11.74;59.62
74968;SHT30;63523;51.880;12.630;2023-05-10T02:05:41;11.77;59.17
74968;SHT30;63523;51.880;12.630;2023-05-10T02:08:11;11.76;59.34
74968;SHT30;63523;51.880;12.630;2023-05-10T02:10:39;11.77;59.43
74968;SHT30;63523;51.880;12.630;2023-05-10T02:13:06;11.70;59.58
74968;SHT30;63523;51.880;12.630;2023-05-10T02:15:32;11.73;59.35
74968;SHT30;63523;51.880;12.630;2023-05-10T02:17:59;11.67;59.46
74968;SHT30;63523;51.880;12.630;2023-05-10T02:20:26;11.65;59.68
74968;SHT30;63523;51.880;12.630;2023-05-10T02:22:54;11.65;59.67
74968;SHT30;63523;51.880;12.630;2023-05-10T02:25:21;11.67;59.68
74968;SHT30;63523;51.880;12.630;2023-05-10T02:27:47;11.71;59.40
74968;SHT30;63523;51.880;12.630;2023-05-10T02:30:13;11.70;59.53
74968;SHT30;63523;51.880;12.630;2023-05-10T02:32:40;11.70;59.32
74968;SHT30;63523;51.880;12.630;2023-05-10T02:35:07;11.66;59.69
74968;SHT30;63523;51.880;12.630;2023-05-10T02:37:34;11.62;59.77
74968;SHT30;63523;51.880;12.630;2023-05-10T02:40:00;11.63;59.48
74968;SHT30;63523;51.880;12.630;2023-05-10T02:42:29;11.62;59.68
74968;SHT30;63523;51.880;12.630;2023-05-10T02:44:59;11.55;59.86
74968;SHT30;63523;51.880;12.630;2023-05-10T02:47:25;11.53;60.17
74968;SHT30;63523;51.880;12.630;2023-05-10T02:49:51;11.59;59.65
74968;SHT30;63523;51.880;12.630;2023-05-10T02:52:27;11.55;60.01
74968;SHT30;63523;51.880;12.630;2023-05-10T02:55:00;11.56;59.76
74968;SHT30;63523;51.880;12.630;2023-05-10T02:57:32;11.55;59.78
74968;SHT30;63523;51.880;12.630;2023-05-10T02:59:58;11.47;60.12
74968;SHT30;63523;51.880;12.630;2023-05-10T03:02:25;11.52;59.75
74968;SHT30;63523;51.880;12.630;2023-05-10T03:04:51;11.52;60.07
74968;SHT30;63523;51.880;12.630;2023-05-10T03:07:16;11.49;59.96
74968;SHT30;63523;51.880;12.630;2023-05-10T03:10:02;11.46;59.87
74968;SHT30;63523;51.880;12.630;2023-05-10T03:12:56;11.42;60.41
74968;SHT30;63523;51.880;12.630;2023-05-10T03:18:01;11.43;60.03
74968;SHT30;63523;51.880;12.630;2023-05-10T03:20:36;11.47;59.88
74968;SHT30;63523;51.880;12.630;2023-05-10T03:26:27;11.40;60.25
74968;SHT30;63523;51.880;12.630;2023-05-10T03:28:53;11.44;59.85
74968;SHT30;63523;51.880;12.630;2023-05-10T03:31:19;11.44;59.92
74968;SHT30;63523;51.880;12.630;2023-05-10T03:33:48;11.47;59.93
74968;SHT30;63523;51.880;12.630;2023-05-10T03:36:13;11.47;59.96
74968;SHT30;63523;51.880;12.630;2023-05-10T03:38:39;11.43;60.05
74968;SHT30;63523;51.880;12.630;2023-05-10T03:41:04;11.47;59.92
74968;SHT30;63523;51.880;12.630;2023-05-10T03:43:29;11.53;60.14
74968;SHT30;63523;51.880;12.630;2023-05-10T03:45:55;11.63;59.79
74968;SHT30;63523;51.880;12.630;2023-05-10T03:48:20;11.78;59.17
74968;SHT30;63523;51.880;12.630;2023-05-10T03:50:45;11.97;58.40
74968;SHT30;63523;51.880;12.630;2023-05-10T03:53:10;12.04;58.45
74968;SHT30;63523;51.880;12.630;2023-05-10T03:55:36;12.08;58.11
74968;SHT30;63523;51.880;12.630;2023-05-10T03:58:01;12.21;57.65
74968;SHT30;63523;51.880;12.630;2023-05-10T04:00:26;12.31;57.11
74968;SHT30;63523;51.880;12.630;2023-05-10T04:02:52;12.36;57.69
74968;SHT30;63523;51.880;12.630;2023-05-10T04:05:17;12.53;56.73
74968;SHT30;63523;51.880;12.630;2023-05-10T04:07:42;12.64;56.38
74968;SHT30;63523;51.880;12.630;2023-05-10T04:10:09;12.73;55.86
74968;SHT30;63523;51.880;12.630;2023-05-10T04:12:34;12.76;56.31
74968;SHT30;63523;51.880;12.630;2023-05-10T04:15:00;12.81;56.41
74968;SHT30;63523;51.880;12.630;2023-05-10T04:17:25;12.88;55.83
74968;SHT30;63523;51.880;12.630;2023-05-10T04:19:50;12.95;56.05
74968;SHT30;63523;51.880;12.630;2023-05-10T04:22:18;13.08;55.34
74968;SHT30;63523;51.880;12.630;2023-05-10T04:24:43;13.19;54.75
74968;SHT30;63523;51.880;12.630;2023-05-10T04:27:08;13.25;54.60
74968;SHT30;63523;51.880;12.630;2023-05-10T04:29:33;13.22;55.09
74968;SHT30;63523;51.880;12.630;2023-05-10T04:31:59;13.29;54.58
74968;SHT30;63523;51.880;12.630;2023-05-10T04:34:24;13.35;54.90
74968;SHT30;63523;51.880;12.630;2023-05-10T04:36:49;13.43;54.94
74968;SHT30;63523;51.880;12.630;2023-05-10T04:39:15;13.55;54.74
74968;SHT30;63523;51.880;12.630;2023-05-10T04:41:40;13.63;53.35
74968;SHT30;63523;51.880;12.630;2023-05-10T04:44:05;13.66;54.23
74968;SHT30;63523;51.880;12.630;2023-05-10T04:46:31;13.76;53.79
74968;SHT30;63523;51.880;12.630;2023-05-10T04:48:56;13.81;54.48
74968;SHT30;63523;51.880;12.630;2023-05-10T04:51:21;13.95;53.88
74968;SHT30;63523;51.880;12.630;2023-05-10T04:53:47;14.00;53.80
74968;SHT30;63523;51.880;12.630;2023-05-10T04:56:12;14.05;53.54
74968;SHT30;63523;51.880;12.630;2023-05-10T04:58:37;14.18;53.40
74968;SHT30;63523;51.880;12.630;2023-05-10T05:01:08;14.29;52.67
74968;SHT30;63523;51.880;12.630;2023-05-10T05:03:35;14.39;52.50
74968;SHT30;63523;51.880;12.630;2023-05-10T05:06:01;14.43;52.54
74968;SHT30;63523;51.880;12.630;2023-05-10T05:08:26;14.48;52.80
74968;SHT30;63523;51.880;12.630;2023-05-10T05:10:51;14.62;52.40
74968;SHT30;63523;51.880;12.630;2023-05-10T05:13:17;14.83;51.14
74968;SHT30;63523;51.880;12.630;2023-05-10T05:15:42;14.83;51.65
74968;SHT30;63523;51.880;12.630;2023-05-10T05:18:07;14.67;51.20
74968;SHT30;63523;51.880;12.630;2023-05-10T05:20:33;14.60;51.25
74968;SHT30;63523;51.880;12.630;2023-05-10T05:22:59;14.60;51.93
74968;SHT30;63523;51.880;12.630;2023-05-10T05:25:24;14.50;51.53
74968;SHT30;63523;51.880;12.630;2023-05-10T05:27:49;14.50;53.32
74968;SHT30;63523;51.880;12.630;2023-05-10T05:30:15;14.59;51.92
74968;SHT30;63523;51.880;12.630;2023-05-10T05:32:40;14.56;51.47
74968;SHT30;63523;51.880;12.630;2023-05-10T05:35:06;14.49;53.13
74968;SHT30;63523;51.880;12.630;2023-05-10T05:37:31;14.57;52.94
74968;SHT30;63523;51.880;12.630;2023-05-10T05:39:56;14.66;52.88
74968;SHT30;63523;51.880;12.630;2023-05-10T05:42:22;14.76;52.42
74968;SHT30;63523;51.880;12.630;2023-05-10T05:44:47;14.80;52.32
74968;SHT30;63523;51.880;12.630;2023-05-10T05:47:12;14.79;53.53
74968;SHT30;63523;51.880;12.630;2023-05-10T05:49:38;14.83;53.38
74968;SHT30;63523;51.880;12.630;2023-05-10T05:52:03;14.97;51.93
74968;SHT30;63523;51.880;12.630;2023-05-10T05:54:29;14.98;52.37
74968;SHT30;63523;51.880;12.630;2023-05-10T05:56:59;15.07;52.32
74968;SHT30;63523;51.880;12.630;2023-05-10T05:59:24;15.11;51.32
74968;SHT30;63523;51.880;12.630;2023-05-10T06:01:50;15.07;51.99
74968;SHT30;63523;51.880;12.630;2023-05-10T06:04:16;15.04;52.29
74968;SHT30;63523;51.880;12.630;2023-05-10T06:06:43;15.05;52.30
74968;SHT30;63523;51.880;12.630;2023-05-10T06:09:08;15.15;52.22
74968;SHT30;63523;51.880;12.630;2023-05-10T06:11:34;15.17;52.90
74968;SHT30;63523;51.880;12.630;2023-05-10T06:14:01;15.25;52.61
74968;SHT30;63523;51.880;12.630;2023-05-10T06:16:26;15.34;52.76
74968;SHT30;63523;51.880;12.630;2023-05-10T06:18:52;15.49;51.46
74968;SHT30;63523;51.880;12.630;2023-05-10T06:21:17;15.53;50.62
74968;SHT30;63523;51.880;12.630;2023-05-10T06:23:42;15.59;51.47
74968;SHT30;63523;51.880;12.630;2023-05-10T06:26:09;15.57;50.68
74968;SHT30;63523;51.880;12.630;2023-05-10T06:28:34;15.63;51.39
74968;SHT30;63523;51.880;12.630;2023-05-10T06:31:00;15.65;51.68
74968;SHT30;63523;51.880;12.630;2023-05-10T06:33:25;15.69;50.84
74968;SHT30;63523;51.880;12.630;2023-05-10T06:35:50;15.70;51.03
74968;SHT30;63523;51.880;12.630;2023-05-10T06:38:16;15.86;51.24
74968;SHT30;63523;51.880;12.630;2023-05-10T06:40:41;15.97;51.68
74968;SHT30;63523;51.880;12.630;2023-05-10T06:43:07;16.04;51.11
74968;SHT30;63523;51.880;12.630;2023-05-10T06:45:32;16.18;51.78
74968;SHT30;63523;51.880;12.630;2023-05-10T06:47:57;16.28;50.90
74968;SHT30;63523;51.880;12.630;2023-05-10T06:50:23;16.28;49.92
74968;SHT30;63523;51.880;12.630;2023-05-10T06:52:48;16.19;50.88
74968;SHT30;63523;51.880;12.630;2023-05-10T06:55:13;16.35;50.44
74968;SHT30;63523;51.880;12.630;2023-05-10T06:57:38;16.33;49.80
74968;SHT30;63523;51.880;12.630;2023-05-10T07:00:04;16.41;50.71
74968;SHT30;63523;51.880;12.630;2023-05-10T07:02:30;16.49;50.19
74968;SHT30;63523;51.880;12.630;2023-05-10T07:04:55;16.48;49.83
74968;SHT30;63523;51.880;12.630;2023-05-10T07:07:21;16.51;50.91
74968;SHT30;63523;51.880;12.630;2023-05-10T07:09:46;16.79;50.94
74968;SHT30;63523;51.880;12.630;2023-05-10T07:12:12;16.97;51.21
74968;SHT30;63523;51.880;12.630;2023-05-10T07:14:37;17.06;49.47
74968;SHT30;63523;51.880;12.630;2023-05-10T07:17:02;17.15;48.46
74968;SHT30;63523;51.880;12.630;2023-05-10T07:19:27;17.32;47.68
74968;SHT30;63523;51.880;12.630;2023-05-10T07:21:54;17.42;47.88
74968;SHT30;63523;51.880;12.630;2023-05-10T07:24:20;17.47;47.68
74968;SHT30;63523;51.880;12.630;2023-05-10T07:26:45;17.53;47.69
74968;SHT30;63523;51.880;12.630;2023-05-10T07:29:10;17.63;48.12
74968;SHT30;63523;51.880;12.630;2023-05-10T07:31:36;17.62;48.44
74968;SHT30;63523;51.880;12.630;2023-05-10T07:34:01;17.70;47.75
74968;SHT30;63523;51.880;12.630;2023-05-10T07:36:26;17.76;47.71
74968;SHT30;63523;51.880;12.630;2023-05-10T07:38:51;17.83;48.20
74968;SHT30;63523;51.880;12.630;2023-05-10T07:41:17;17.86;48.50
74968;SHT30;63523;51.880;12.630;2023-05-10T07:43:42;17.89;48.59
74968;SHT30;63523;51.880;12.630;2023-05-10T07:46:07;17.82;47.64
74968;SHT30;63523;51.880;12.630;2023-05-10T07:48:35;17.86;49.04
74968;SHT30;63523;51.880;12.630;2023-05-10T07:51:00;18.04;48.24
74968;SHT30;63523;51.880;12.630;2023-05-10T07:53:26;18.27;47.20
74968;SHT30;63523;51.880;12.630;2023-05-10T07:55:54;18.25;48.95
74968;SHT30;63523;51.880;12.630;2023-05-10T07:58:22;18.15;47.18
74968;SHT30;63523;51.880;12.630;2023-05-10T08:00:47;18.29;48.05
74968;SHT30;63523;51.880;12.630;2023-05-10T08:03:13;18.32;47.43
74968;SHT30;63523;51.880;12.630;2023-05-10T08:05:38;18.55;47.76
74968;SHT30;63523;51.880;12.630;2023-05-10T08:08:04;18.70;46.93
74968;SHT30;63523;51.880;12.630;2023-05-10T08:10:29;18.76;47.51
74968;SHT30;63523;51.880;12.630;2023-05-10T08:12:54;18.94;46.94
74968;SHT30;63523;51.880;12.630;2023-05-10T08:15:20;19.00;46.41
74968;SHT30;63523;51.880;12.630;2023-05-10T08:17:45;19.04;47.42
74968;SHT30;63523;51.880;12.630;2023-05-10T08:20:10;19.18;47.35
74968;SHT30;63523;51.880;12.630;2023-05-10T08:22:37;19.35;46.70
74968;SHT30;63523;51.880;12.630;2023-05-10T08:25:03;19.45;47.76
74968;SHT30;63523;51.880;12.630;2023-05-10T08:27:28;19.66;45.84
74968;SHT30;63523;51.880;12.630;2023-05-10T08:29:53;19.66;46.07
74968;SHT30;63523;51.880;12.630;2023-05-10T08:32:19;19.91;47.15
74968;SHT30;63523;51.880;12.630;2023-05-10T08:34:44;20.11;45.50
74968;SHT30;63523;51.880;12.630;2023-05-10T08:37:09;20.31;45.52
74968;SHT30;63523;51.880;12.630;2023-05-10T08:39:37;20.48;46.00
74968;SHT30;63523;51.880;12.630;2023-05-10T08:42:04;20.75;44.05
74968;SHT30;63523;51.880;12.630;2023-05-10T08:44:34;20.75;45.33
74968;SHT30;63523;51.880;12.630;2023-05-10T08:47:04;20.79;45.08
74968;SHT30;63523;51.880;12.630;2023-05-10T08:49:31;20.91;45.38
74968;SHT30;63523;51.880;12.630;2023-05-10T08:51:57;20.90;45.77
74968;SHT30;63523;51.880;12.630;2023-05-10T08:54:22;21.14;44.59
74968;SHT30;63523;51.880;12.630;2023-05-10T08:56:48;21.17;46.05
74968;SHT30;63523;51.880;12.630;2023-05-10T08:59:13;21.27;47.17
74968;SHT30;63523;51.880;12.630;2023-05-10T09:01:40;21.65;43.06
74968;SHT30;63523;51.880;12.630;2023-05-10T09:04:07;21.55;44.09
74968;SHT30;63523;51.880;12.630;2023-05-10T09:06:32;21.39;44.42
74968;SHT30;63523;51.880;12.630;2023-05-10T09:08:58;21.32;45.98
74968;SHT30;63523;51.880;12.630;2023-05-10T09:11:24;21.28;44.58
74968;SHT30;63523;51.880;12.630;2023-05-10T09:13:50;21.38;46.25
74968;SHT30;63523;51.880;12.630;2023-05-10T09:16:16;21.51;44.20
74968;SHT30;63523;51.880;12.630;2023-05-10T09:18:41;21.80;44.18
74968;SHT30;63523;51.880;12.630;2023-05-10T09:21:07;21.85;43.89
74968;SHT30;63523;51.880;12.630;2023-05-10T09:23:33;21.82;43.59
74968;SHT30;63523;51.880;12.630;2023-05-10T09:26:05;21.73;43.86
74968;SHT30;63523;51.880;12.630;2023-05-10T09:28:34;21.72;45.25
74968;SHT30;63523;51.880;12.630;2023-05-10T09:31:14;21.86;45.03
74968;SHT30;63523;51.880;12.630;2023-05-10T09:33:47;21.98;44.26
74968;SHT30;63523;51.880;12.630;2023-05-10T09:36:13;22.25;44.31
74968;SHT30;63523;51.880;12.630;2023-05-10T09:38:48;22.22;44.75
74968;SHT30;63523;51.880;12.630;2023-05-10T09:41:22;22.27;44.45
74968;SHT30;63523;51.880;12.630;2023-05-10T09:43:48;22.31;43.64
74968;SHT30;63523;51.880;12.630;2023-05-10T09:46:13;22.15;43.72
74968;SHT30;63523;51.880;12.630;2023-05-10T09:48:44;22.21;45.50
74968;SHT30;63523;51.880;12.630;2023-05-10T09:51:09;22.34;45.67
74968;SHT30;63523;51.880;12.630;2023-05-10T09:53:35;22.60;43.92
74968;SHT30;63523;51.880;12.630;2023-05-10T09:56:00;22.87;43.40
74968;SHT30;63523;51.880;12.630;2023-05-10T09:58:25;22.89;43.98
74968;SHT30;63523;51.880;12.630;2023-05-10T10:00:51;22.83;43.75
74968;SHT30;63523;51.880;12.630;2023-05-10T10:03:18;22.62;44.22
74968;SHT30;63523;51.880;12.630;2023-05-10T10:05:44;22.42;43.51
74968;SHT30;63523;51.880;12.630;2023-05-10T10:08:11;22.34;44.78
74968;SHT30;63523;51.880;12.630;2023-05-10T10:10:37;22.18;45.70
74968;SHT30;63523;51.880;12.630;2023-05-10T10:13:05;22.28;46.86
74968;SHT30;63523;51.880;12.630;2023-05-10T10:15:32;22.62;46.69
74968;SHT30;63523;51.880;12.630;2023-05-10T10:17:58;23.06;44.12
74968;SHT30;63523;51.880;12.630;2023-05-10T10:20:24;23.35;43.26
74968;SHT30;63523;51.880;12.630;2023-05-10T10:22:50;23.28;43.73
74968;SHT30;63523;51.880;12.630;2023-05-10T10:25:17;23.41;43.42
74968;SHT30;63523;51.880;12.630;2023-05-10T10:28:02;23.47;43.96
74968;SHT30;63523;51.880;12.630;2023-05-10T10:30:46;23.68;43.49
74968;SHT30;63523;51.880;12.630;2023-05-10T10:33:33;23.87;41.79
74968;SHT30;63523;51.880;12.630;2023-05-10T10:36:02;23.82;42.53
74968;SHT30;63523;51.880;12.630;2023-05-10T10:41:41;23.52;43.45
74968;SHT30;63523;51.880;12.630;2023-05-10T10:49:48;24.79;39.96
74968;SHT30;63523;51.880;12.630;2023-05-10T10:52:27;24.69;40.73
74968;SHT30;63523;51.880;12.630;2023-05-10T10:55:05;24.18;44.36
74968;SHT30;63523;51.880;12.630;2023-05-10T10:57:35;23.96;43.24
74968;SHT30;63523;51.880;12.630;2023-05-10T11:00:39;23.93;43.56
74968;SHT30;63523;51.880;12.630;2023-05-10T11:03:11;23.79;44.27
74968;SHT30;63523;51.880;12.630;2023-05-10T11:05:48;23.58;44.28
74968;SHT30;63523;51.880;12.630;2023-05-10T11:08:34;23.63;45.05
74968;SHT30;63523;51.880;12.630;2023-05-10T11:13:38;24.04;43.02
74968;SHT30;63523;51.880;12.630;2023-05-10T11:18:37;24.90;41.95
74968;SHT30;63523;51.880;12.630;2023-05-10T11:21:03;25.45;43.23
74968;SHT30;63523;51.880;12.630;2023-05-10T11:26:07;26.10;40.33
74968;SHT30;63523;51.880;12.630;2023-05-10T11:28:40;26.23;39.30
74968;SHT30;63523;51.880;12.630;2023-05-10T11:31:06;26.23;40.29
74968;SHT30;63523;51.880;12.630;2023-05-10T11:33:42;26.28;39.73
74968;SHT30;63523;51.880;12.630;2023-05-10T11:36:11;26.36;41.20
74968;SHT30;63523;51.880;12.630;2023-05-10T11:38:36;25.79;42.02
74968;SHT30;63523;51.880;12.630;2023-05-10T11:41:02;25.34;43.24
74968;SHT30;63523;51.880;12.630;2023-05-10T11:43:27;24.79;43.89
74968;SHT30;63523;51.880;12.630;2023-05-10T11:45:55;24.11;45.06
74968;SHT30;63523;51.880;12.630;2023-05-10T11:48:21;23.57;46.15
74968;SHT30;63523;51.880;12.630;2023-05-10T11:50:49;22.99;47.45
74968;SHT30;63523;51.880;12.630;2023-05-10T11:53:14;22.65;49.18
74968;SHT30;63523;51.880;12.630;2023-05-10T11:55:39;22.35;49.38
74968;SHT30;63523;51.880;12.630;2023-05-10T11:58:04;22.11;49.82
74968;SHT30;63523;51.880;12.630;2023-05-10T12:00:30;21.96;50.98
74968;SHT30;63523;51.880;12.630;2023-05-10T12:02:56;21.92;51.07
74968;SHT30;63523;51.880;12.630;2023-05-10T12:05:22;21.93;51.17
74968;SHT30;63523;51.880;12.630;2023-05-10T12:07:47;22.00;51.35
74968;SHT30;63523;51.880;12.630;2023-05-10T12:10:13;22.10;51.22
74968;SHT30;63523;51.880;12.630;2023-05-10T12:12:45;22.08;50.03
74968;SHT30;63523;51.880;12.630;2023-05-10T12:15:17;22.03;52.65
74968;SHT30;63523;51.880;12.630;2023-05-10T12:17:44;22.06;50.87
74968;SHT30;63523;51.880;12.630;2023-05-10T12:20:27;21.86;51.07
74968;SHT30;63523;51.880;12.630;2023-05-10T12:22:55;21.79;52.69
74968;SHT30;63523;51.880;12.630;2023-05-10T12:25:23;21.78;53.47
74968;SHT30;63523;51.880;12.630;2023-05-10T12:27:54;21.86;53.40
74968;SHT30;63523;51.880;12.630;2023-05-10T12:30:21;21.85;52.54
74968;SHT30;63523;51.880;12.630;2023-05-10T12:32:47;21.69;52.67
74968;SHT30;63523;51.880;12.630;2023-05-10T12:35:12;21.67;54.20
74968;SHT30;63523;51.880;12.630;2023-05-10T12:37:38;21.66;52.19
74968;SHT30;63523;51.880;12.630;2023-05-10T12:40:07;21.63;53.07
74968;SHT30;63523;51.880;12.630;2023-05-10T12:42:34;21.73;54.38
74968;SHT30;63523;51.880;12.630;2023-05-10T12:45:00;21.92;54.14
74968;SHT30;63523;51.880;12.630;2023-05-10T12:47:26;22.03;53.30
74968;SHT30;63523;51.880;12.630;2023-05-10T12:49:51;21.93;52.47
74968;SHT30;63523;51.880;12.630;2023-05-10T12:52:16;21.93;54.02
74968;SHT30;63523;51.880;12.630;2023-05-10T12:54:42;21.75;53.59
74968;SHT30;63523;51.880;12.630;2023-05-10T12:57:07;21.69;55.24
74968;SHT30;63523;51.880;12.630;2023-05-10T12:59:32;21.79;55.04
74968;SHT30;63523;51.880;12.630;2023-05-10T13:01:57;21.67;53.98
74968;SHT30;63523;51.880;12.630;2023-05-10T13:04:23;21.53;56.53
74968;SHT30;63523;51.880;12.630;2023-05-10T13:06:48;21.62;57.61
74968;SHT30;63523;51.880;12.630;2023-05-10T13:09:14;21.73;55.39
74968;SHT30;63523;51.880;12.630;2023-05-10T13:11:39;21.69;57.04
74968;SHT30;63523;51.880;12.630;2023-05-10T13:14:04;21.76;56.43
74968;SHT30;63523;51.880;12.630;2023-05-10T13:16:30;21.70;54.84
74968;SHT30;63523;51.880;12.630;2023-05-10T13:18:56;21.48;56.00
74968;SHT30;63523;51.880;12.630;2023-05-10T13:21:21;21.21;57.57
74968;SHT30;63523;51.880;12.630;2023-05-10T13:23:46;21.06;58.30
74968;SHT30;63523;51.880;12.630;2023-05-10T13:26:12;21.00;58.85
74968;SHT30;63523;51.880;12.630;2023-05-10T13:28:37;20.76;58.70
74968;SHT30;63523;51.880;12.630;2023-05-10T13:31:04;20.52;60.42
74968;SHT30;63523;51.880;12.630;2023-05-10T13:33:30;20.44;60.43
74968;SHT30;63523;51.880;12.630;2023-05-10T13:35:55;20.44;60.51
74968;SHT30;63523;51.880;12.630;2023-05-10T13:38:20;20.46;60.91
74968;SHT30;63523;51.880;12.630;2023-05-10T13:40:45;20.45;61.27
74968;SHT30;63523;51.880;12.630;2023-05-10T13:43:10;20.53;61.13
74968;SHT30;63523;51.880;12.630;2023-05-10T13:45:36;20.52;60.23
74968;SHT30;63523;51.880;12.630;2023-05-10T13:48:01;20.28;61.28
74968;SHT30;63523;51.880;12.630;2023-05-10T13:50:26;20.28;61.59
74968;SHT30;63523;51.880;12.630;2023-05-10T13:52:52;20.31;61.66
74968;SHT30;63523;51.880;12.630;2023-05-10T13:55:17;20.15;61.35
74968;SHT30;63523;51.880;12.630;2023-05-10T13:57:42;20.21;62.87
74968;SHT30;63523;51.880;12.630;2023-05-10T14:00:08;20.18;62.21
74968;SHT30;63523;51.880;12.630;2023-05-10T14:02:34;20.15;62.29
74968;SHT30;63523;51.880;12.630;2023-05-10T14:04:59;20.08;61.97
74968;SHT30;63523;51.880;12.630;2023-05-10T14:07:25;19.98;62.88
74968;SHT30;63523;51.880;12.630;2023-05-10T14:09:50;19.97;63.51
74968;SHT30;63523;51.880;12.630;2023-05-10T14:12:16;20.00;63.85
74968;SHT30;63523;51.880;12.630;2023-05-10T14:14:42;20.06;63.70
74968;SHT30;63523;51.880;12.630;2023-05-10T14:17:07;20.00;63.37
74968;SHT30;63523;51.880;12.630;2023-05-10T14:19:32;20.00;64.58
74968;SHT30;63523;51.880;12.630;2023-05-10T14:21:59;20.08;63.87
74968;SHT30;63523;51.880;12.630;2023-05-10T14:24:24;20.15;63.96
74968;SHT30;63523;51.880;12.630;2023-05-10T14:26:49;20.06;63.00
74968;SHT30;63523;51.880;12.630;2023-05-10T14:29:18;19.90;62.94
74968;SHT30;63523;51.880;12.630;2023-05-10T14:31:44;19.84;64.65
74968;SHT30;63523;51.880;12.630;2023-05-10T14:34:09;19.67;63.65
74968;SHT30;63523;51.880;12.630;2023-05-10T14:36:34;19.52;64.53
74968;SHT30;63523;51.880;12.630;2023-05-10T14:38:59;19.59;65.44
74968;SHT30;63523;51.880;12.630;2023-05-10T14:41:25;19.61;65.44
74968;SHT30;63523;51.880;12.630;2023-05-10T14:43:50;19.66;65.19
74968;SHT30;63523;51.880;12.630;2023-05-10T14:46:15;19.63;65.51
74968;SHT30;63523;51.880;12.630;2023-05-10T14:48:41;19.56;65.29
74968;SHT30;63523;51.880;12.630;2023-05-10T14:51:06;19.48;64.79
74968;SHT30;63523;51.880;12.630;2023-05-10T14:53:31;19.36;65.36
74968;SHT30;63523;51.880;12.630;2023-05-10T14:55:57;19.34;65.08
74968;SHT30;63523;51.880;12.630;2023-05-10T14:58:23;19.29;66.01
74968;SHT30;63523;51.880;12.630;2023-05-10T15:00:48;19.24;66.03
74968;SHT30;63523;51.880;12.630;2023-05-10T15:03:13;19.19;66.20
74968;SHT30;63523;51.880;12.630;2023-05-10T15:05:39;19.06;66.85
74968;SHT30;63523;51.880;12.630;2023-05-10T15:08:04;19.03;66.88
74968;SHT30;63523;51.880;12.630;2023-05-10T15:10:30;19.01;66.27
74968;SHT30;63523;51.880;12.630;2023-05-10T15:12:58;18.96;66.14
74968;SHT30;63523;51.880;12.630;2023-05-10T15:15:24;18.99;66.63
74968;SHT30;63523;51.880;12.630;2023-05-10T15:17:49;18.97;66.64
74968;SHT30;63523;51.880;12.630;2023-05-10T15:20:15;19.10;67.41
74968;SHT30;63523;51.880;12.630;2023-05-10T15:22:40;19.22;67.32
74968;SHT30;63523;51.880;12.630;2023-05-10T15:25:06;19.22;66.60
74968;SHT30;63523;51.880;12.630;2023-05-10T15:27:31;19.27;66.47
74968;SHT30;63523;51.880;12.630;2023-05-10T15:29:56;19.31;66.23
74968;SHT30;63523;51.880;12.630;2023-05-10T15:32:22;19.15;66.25
74968;SHT30;63523;51.880;12.630;2023-05-10T15:34:47;19.08;66.32
74968;SHT30;63523;51.880;12.630;2023-05-10T15:37:12;18.99;66.55
74968;SHT30;63523;51.880;12.630;2023-05-10T15:39:38;18.93;67.44
74968;SHT30;63523;51.880;12.630;2023-05-10T15:42:03;18.86;67.48
74968;SHT30;63523;51.880;12.630;2023-05-10T15:44:29;18.87;68.25